Главная страница
METAR-TAF:

METAR-TAF

Аэропорты :

Wellsville Municipal Airport (Tarantine Field)

Wellsville, Нью-Йорк, США

широта: 42-06-27N, долгота: 077-59-04W, высота над уровнем моря: 647 м

Текущие метеонаблюдения

Эта сводка был подготовлена 27 минут назад, в 23:33 UTC
Штиль
Температура 1°C
Влажность 100%
Давление 1013 hPa
Видимость: 2.0 км
Сплошная облачность на высоте 300 фута
дымка

METAR: KELZ 162333Z AUTO 00000KT 1 1/4SM BR OVC003 01/01 A2990 RMK AO2 T00110011

Время: 19:00 (00:00 UTC)


TAF: отсутствует

Метеонаблюдения и прогнозы для более 4000 аэропортов (сводки METAR и TAF).

Имеющиеся станции представлены на карте желтыми и красными точками.

Чтобы увидеть название станции, наведите на нее мышь.

Затем щелкните, чтобы увидеть метеонаблюдения и метеопрогнозы.

Управление картой: чтобы увеличить масштаб, щелкните зеленые кнопки с черным крестиком; чтобы уменьшить масштаб, щелкните зеленую кнопку с тире; для просмотра соседних карт щелкайте зеленые стрелки.


METAR-TAF: